createdAt,value
2022-11-19T00:01:34.351Z,25.75
2022-11-19T00:04:02.122Z,25.35
2022-11-19T00:06:31.190Z,27.13
2022-11-19T00:08:58.805Z,26.65
2022-11-19T00:11:42.074Z,27.48
2022-11-19T00:14:10.715Z,27.20
2022-11-19T00:16:38.406Z,25.92
2022-11-19T00:19:06.324Z,26.80
2022-11-19T00:21:35.474Z,26.67
2022-11-19T00:24:03.171Z,25.85
2022-11-19T00:26:30.948Z,25.83
2022-11-19T00:28:58.741Z,25.60
2022-11-19T00:31:26.394Z,25.50
2022-11-19T00:33:55.107Z,26.08
2022-11-19T00:36:23.841Z,25.10
2022-11-19T00:38:52.930Z,24.02
2022-11-19T00:41:20.646Z,25.17
2022-11-19T00:43:48.742Z,24.60
2022-11-19T00:46:17.972Z,24.52
2022-11-19T00:48:45.759Z,24.08
2022-11-19T00:51:14.262Z,23.77
2022-11-19T00:53:42.176Z,24.20
2022-11-19T00:56:12.932Z,23.70
2022-11-19T00:58:41.025Z,24.42
2022-11-19T01:01:09.788Z,23.27
2022-11-19T01:03:38.366Z,22.70
2022-11-19T01:06:06.838Z,22.85
2022-11-19T01:08:34.535Z,22.23
2022-11-19T01:11:05.872Z,22.25
2022-11-19T01:13:36.059Z,22.30
2022-11-19T01:16:05.514Z,22.77
2022-11-19T01:18:33.553Z,22.33
2022-11-19T01:21:01.599Z,22.25
2022-11-19T01:23:29.607Z,22.08
2022-11-19T01:25:57.401Z,21.45
2022-11-19T01:28:25.484Z,22.77
2022-11-19T01:30:54.910Z,22.23
2022-11-19T01:33:23.463Z,22.63
2022-11-19T01:35:58.391Z,22.70
2022-11-19T01:38:26.097Z,22.80
2022-11-19T01:40:53.856Z,22.08
2022-11-19T01:43:21.568Z,22.00
2022-11-19T01:45:52.712Z,21.70
2022-11-19T01:48:24.399Z,22.08
2022-11-19T01:50:54.230Z,22.35
2022-11-19T01:53:23.717Z,22.52
2022-11-19T01:55:51.917Z,21.80
2022-11-19T01:58:22.619Z,21.23
2022-11-19T02:00:50.293Z,21.63
2022-11-19T02:03:19.852Z,21.73
2022-11-19T02:05:49.269Z,22.40
2022-11-19T02:08:39.712Z,21.98
2022-11-19T02:11:32.134Z,22.33
2022-11-19T02:14:10.388Z,21.73
2022-11-19T02:16:43.271Z,21.45
2022-11-19T02:19:18.213Z,22.05
2022-11-19T02:21:54.755Z,22.13
2022-11-19T02:24:41.984Z,21.77
2022-11-19T02:27:44.863Z,22.15
2022-11-19T02:30:16.500Z,22.00
2022-11-19T02:32:58.808Z,21.08
2022-11-19T02:35:36.296Z,20.42
2022-11-19T02:38:06.513Z,20.67
2022-11-19T02:40:38.172Z,21.40
2022-11-19T02:43:15.922Z,21.35
2022-11-19T02:45:47.756Z,22.05
2022-11-19T02:48:17.692Z,22.23
2022-11-19T02:50:47.480Z,21.52
2022-11-19T02:53:15.181Z,21.97
2022-11-19T02:56:03.402Z,21.23
2022-11-19T02:58:50.296Z,20.90
2022-11-19T03:01:37.325Z,21.52
2022-11-19T03:04:23.109Z,21.67
2022-11-19T03:06:50.971Z,21.13
2022-11-19T03:09:19.353Z,21.52
2022-11-19T03:11:49.002Z,21.63
2022-11-19T03:14:37.220Z,20.58
2022-11-19T03:17:09.348Z,20.85
2022-11-19T03:19:38.860Z,21.48
2022-11-19T03:22:11.576Z,20.95
2022-11-19T03:24:43.398Z,20.63
2022-11-19T03:27:13.739Z,20.70
2022-11-19T03:29:44.311Z,21.60
2022-11-19T03:32:16.132Z,19.80
2022-11-19T03:34:45.382Z,20.90
2022-11-19T03:37:15.140Z,20.23
2022-11-19T03:39:44.197Z,20.20
2022-11-19T03:42:14.133Z,21.30
2022-11-19T03:44:44.877Z,20.45
2022-11-19T03:47:18.172Z,19.73
2022-11-19T03:49:49.610Z,20.42
2022-11-19T03:52:19.541Z,21.17
2022-11-19T03:54:47.354Z,19.70
2022-11-19T03:57:21.705Z,20.75
2022-11-19T03:59:49.466Z,20.15
2022-11-19T04:02:19.191Z,19.52
2022-11-19T04:04:47.280Z,22.47
2022-11-19T04:07:17.097Z,20.10
2022-11-19T04:09:44.769Z,21.73
2022-11-19T04:12:17.171Z,20.70
2022-11-19T04:14:44.992Z,20.90
2022-11-19T04:17:12.638Z,20.58
2022-11-19T04:19:41.694Z,19.88
2022-11-19T04:22:09.531Z,21.27
2022-11-19T04:24:37.350Z,20.48
2022-11-19T04:27:05.290Z,20.87
2022-11-19T04:29:33.001Z,20.60
2022-11-19T04:32:00.747Z,20.67
2022-11-19T04:34:28.450Z,20.73
2022-11-19T04:36:57.518Z,21.60
2022-11-19T04:39:25.231Z,20.80
2022-11-19T04:41:52.964Z,22.15
2022-11-19T04:44:20.683Z,20.60
2022-11-19T04:46:48.382Z,22.45
2022-11-19T04:49:16.496Z,21.53
2022-11-19T04:51:44.396Z,20.38
2022-11-19T04:54:13.581Z,20.87
2022-11-19T04:56:41.217Z,20.77
2022-11-19T04:59:08.935Z,22.23
2022-11-19T05:01:36.786Z,20.70
2022-11-19T05:04:04.639Z,21.35
2022-11-19T05:06:33.365Z,22.50
2022-11-19T05:09:01.024Z,21.13
2022-11-19T05:11:30.100Z,22.33
2022-11-19T05:13:57.884Z,22.60
2022-11-19T05:16:25.639Z,22.83
2022-11-19T05:18:53.296Z,23.10
2022-11-19T05:21:20.940Z,21.57
2022-11-19T05:23:48.631Z,21.77
2022-11-19T05:26:16.312Z,22.13
2022-11-19T05:28:45.955Z,21.70
2022-11-19T05:31:13.615Z,22.77
2022-11-19T05:33:41.338Z,20.73
2022-11-19T05:36:09.460Z,22.38
2022-11-19T05:38:37.467Z,22.27
2022-11-19T05:41:05.364Z,21.13
2022-11-19T05:43:33.091Z,20.90
2022-11-19T05:46:02.838Z,22.08
2022-11-19T05:48:31.123Z,21.83
2022-11-19T05:50:59.008Z,20.23
2022-11-19T05:53:27.444Z,21.55
2022-11-19T05:55:55.196Z,21.90
2022-11-19T05:58:22.887Z,23.63
2022-11-19T06:00:55.421Z,19.58
2022-11-19T06:03:24.488Z,21.58
2022-11-19T06:05:52.554Z,19.98
2022-11-19T06:08:20.366Z,20.48
2022-11-19T06:10:50.809Z,19.17
2022-11-19T06:13:18.595Z,20.98
2022-11-19T06:15:46.381Z,20.25
2022-11-19T06:18:14.068Z,21.75
2022-11-19T06:20:43.088Z,20.70
2022-11-19T06:23:10.804Z,20.83
2022-11-19T06:25:38.491Z,20.52
2022-11-19T06:28:06.473Z,20.40
2022-11-19T06:30:34.127Z,19.23
2022-11-19T06:33:01.818Z,19.17
2022-11-19T06:35:29.468Z,20.63
2022-11-19T06:37:58.649Z,20.42
2022-11-19T06:40:26.919Z,21.77
2022-11-19T06:42:54.636Z,19.55
2022-11-19T06:45:22.326Z,19.80
2022-11-19T06:47:50.136Z,20.90
2022-11-19T06:50:18.280Z,18.65
2022-11-19T06:52:45.923Z,20.33
2022-11-19T06:55:15.092Z,19.70
2022-11-19T06:57:42.749Z,18.85
2022-11-19T07:00:12.148Z,19.25
2022-11-19T07:02:40.976Z,21.75
2022-11-19T07:05:09.526Z,21.50
2022-11-19T07:07:37.318Z,18.13
2022-11-19T07:10:05.548Z,19.15
2022-11-19T07:12:35.090Z,17.60
2022-11-19T07:15:04.635Z,16.92
2022-11-19T07:17:32.574Z,17.08
2022-11-19T07:20:00.387Z,17.15
2022-11-19T07:22:28.288Z,17.95
2022-11-19T07:24:56.017Z,18.08
2022-11-19T07:27:23.752Z,17.70
2022-11-19T07:29:52.848Z,18.63
2022-11-19T07:32:20.604Z,19.05
2022-11-19T07:34:48.215Z,18.15
2022-11-19T07:37:15.907Z,18.00
2022-11-19T07:39:43.600Z,17.27
2022-11-19T07:42:28.911Z,15.45
2022-11-19T07:44:57.980Z,18.17
2022-11-19T07:47:25.600Z,17.50
2022-11-19T07:49:54.222Z,18.75
2022-11-19T07:52:22.531Z,16.83
2022-11-19T07:54:50.217Z,18.38
2022-11-19T07:57:17.969Z,16.98
2022-11-19T07:59:45.624Z,16.73
2022-11-19T08:02:15.176Z,16.00
2022-11-19T08:04:43.189Z,17.05
2022-11-19T08:07:10.890Z,17.02
2022-11-19T08:09:38.525Z,18.38
2022-11-19T08:12:06.854Z,16.63
2022-11-19T08:14:34.598Z,16.55
2022-11-19T08:17:20.072Z,16.10
2022-11-19T08:19:49.193Z,15.05
2022-11-19T08:22:16.818Z,17.27
2022-11-19T08:24:45.502Z,18.08
2022-11-19T08:27:13.235Z,14.40
2022-11-19T08:29:40.955Z,14.82
2022-11-19T08:32:08.596Z,15.25
2022-11-19T08:34:36.641Z,14.57
2022-11-19T08:37:05.658Z,16.90
2022-11-19T08:39:33.317Z,15.52
2022-11-19T08:42:18.372Z,15.63
2022-11-19T08:44:46.038Z,14.13
2022-11-19T08:47:15.509Z,16.83
2022-11-19T08:49:43.193Z,17.25
2022-11-19T08:52:12.296Z,16.05
2022-11-19T08:54:39.982Z,15.45
2022-11-19T08:57:07.770Z,14.00
2022-11-19T08:59:35.972Z,14.55
2022-11-19T09:02:03.659Z,15.98
2022-11-19T09:04:31.396Z,14.88
2022-11-19T09:06:59.312Z,15.55
2022-11-19T09:09:28.384Z,14.43
2022-11-19T09:11:56.396Z,13.95
2022-11-19T09:14:24.131Z,14.85
2022-11-19T09:16:51.834Z,15.00
2022-11-19T09:19:19.567Z,14.75
2022-11-19T09:21:47.232Z,13.23
2022-11-19T09:24:14.858Z,15.90
2022-11-19T09:26:47.612Z,14.65
2022-11-19T09:29:17.932Z,12.80
2022-11-19T09:31:45.569Z,12.10
2022-11-19T09:34:13.326Z,11.88
2022-11-19T09:36:41.072Z,12.93
2022-11-19T09:39:08.767Z,11.23
2022-11-19T09:41:45.448Z,12.38
2022-11-19T09:44:20.884Z,11.13
2022-11-19T09:46:54.408Z,10.90
2022-11-19T09:49:26.402Z,11.25
2022-11-19T09:51:57.474Z,11.68
2022-11-19T09:54:25.401Z,11.48
2022-11-19T09:56:59.197Z,11.30
2022-11-19T09:59:34.623Z,11.27
2022-11-19T10:02:02.327Z,10.77
2022-11-19T10:04:33.409Z,11.32
2022-11-19T10:07:07.860Z,10.32
2022-11-19T10:09:48.911Z,10.45
2022-11-19T10:12:29.999Z,11.13
2022-11-19T10:15:10.283Z,10.35
2022-11-19T10:17:47.695Z,10.35
2022-11-19T10:20:28.446Z,13.27
2022-11-19T10:22:58.695Z,10.25
2022-11-19T10:25:29.626Z,11.45
2022-11-19T10:28:07.326Z,15.43
2022-11-19T10:30:35.351Z,9.32
2022-11-19T10:33:05.864Z,12.48
2022-11-19T10:35:37.255Z,10.32
2022-11-19T10:38:08.144Z,10.32
2022-11-19T10:40:39.593Z,10.68
2022-11-19T10:43:22.065Z,8.02
2022-11-19T10:45:51.006Z,7.80
2022-11-19T10:48:22.419Z,8.35
2022-11-19T10:50:50.726Z,9.50
2022-11-19T10:53:21.326Z,9.75
2022-11-19T10:55:54.801Z,8.20
2022-11-19T10:58:27.091Z,7.20
2022-11-19T11:00:55.615Z,8.43
2022-11-19T11:03:25.869Z,6.45
2022-11-19T11:05:58.959Z,7.55
2022-11-19T11:08:26.962Z,7.10
2022-11-19T11:10:54.888Z,7.93
2022-11-19T11:14:05.489Z,6.38
2022-11-19T11:16:44.333Z,8.70
2022-11-19T11:19:17.902Z,7.55
2022-11-19T11:21:46.936Z,7.25
2022-11-19T11:24:15.311Z,6.25
2022-11-19T11:26:42.943Z,5.78
2022-11-19T11:32:22.529Z,6.88
2022-11-19T11:37:17.687Z,7.75
2022-11-19T11:39:47.727Z,6.88
2022-11-19T11:42:18.715Z,6.60
2022-11-19T11:44:51.387Z,6.18
2022-11-19T11:47:22.356Z,6.15
2022-11-19T11:49:56.508Z,5.97
2022-11-19T11:52:29.184Z,5.30
2022-11-19T11:54:59.346Z,5.65
2022-11-19T11:57:28.575Z,6.67
2022-11-19T11:59:56.445Z,5.22
2022-11-19T12:02:30.285Z,4.82
2022-11-19T12:05:01.509Z,5.10
2022-11-19T12:07:47.189Z,5.35
2022-11-19T12:10:27.836Z,5.53
2022-11-19T12:13:03.577Z,5.53
2022-11-19T12:15:39.074Z,5.70
2022-11-19T12:18:13.778Z,5.53
2022-11-19T12:20:45.995Z,5.78
2022-11-19T12:25:53.622Z,9.40
2022-11-19T12:28:45.226Z,7.70
2022-11-19T12:31:25.121Z,7.80
2022-11-19T12:34:21.168Z,9.10
2022-11-19T12:36:56.997Z,11.52
2022-11-19T12:39:36.622Z,8.15
2022-11-19T12:42:27.291Z,9.43
2022-11-19T12:44:59.615Z,9.57
2022-11-19T12:47:44.689Z,7.63
2022-11-19T12:50:22.529Z,8.38
2022-11-19T12:53:04.393Z,8.48
2022-11-19T12:55:37.652Z,8.63
2022-11-19T12:58:10.609Z,8.25
2022-11-19T13:00:42.845Z,7.35
2022-11-19T13:03:14.943Z,8.82
2022-11-19T13:10:45.927Z,8.05
2022-11-19T13:13:17.348Z,7.70
2022-11-19T13:15:47.269Z,6.35
2022-11-19T13:18:16.613Z,5.55
2022-11-19T13:20:49.940Z,6.55
2022-11-19T13:23:22.619Z,5.55
2022-11-19T13:25:57.846Z,4.80
2022-11-19T13:28:28.678Z,5.82
2022-11-19T13:30:59.915Z,5.68
2022-11-19T13:33:32.170Z,5.57
2022-11-19T13:36:05.779Z,5.50
2022-11-19T13:38:38.325Z,5.32
2022-11-19T13:41:11.697Z,5.50
2022-11-19T13:43:56.905Z,5.55
2022-11-19T13:46:26.496Z,5.15
2022-11-19T13:48:57.737Z,4.80
2022-11-19T13:51:30.611Z,5.90
2022-11-19T13:54:03.099Z,6.00
2022-11-19T13:56:43.151Z,5.05
2022-11-19T13:59:30.734Z,5.03
2022-11-19T14:02:27.488Z,5.35
2022-11-19T14:05:06.064Z,5.65
2022-11-19T14:07:55.326Z,5.82
2022-11-19T14:10:27.340Z,6.78
2022-11-19T14:32:34.326Z,5.68
2022-11-19T14:35:31.741Z,5.45
2022-11-19T14:38:06.877Z,5.35
2022-11-19T14:40:38.503Z,5.07
2022-11-19T14:43:44.192Z,6.72
2022-11-19T14:46:28.474Z,5.00
2022-11-19T14:49:02.228Z,5.70
2022-11-19T14:51:32.825Z,4.15
2022-11-19T14:54:04.575Z,5.25
2022-11-19T14:56:33.020Z,4.28
2022-11-19T14:59:08.926Z,4.40
2022-11-19T15:01:50.478Z,4.63
2022-11-19T15:04:21.419Z,4.13
2022-11-19T15:06:49.413Z,4.03
2022-11-19T15:10:01.320Z,4.93
2022-11-19T15:12:35.325Z,5.07
2022-11-19T15:15:36.848Z,4.25
2022-11-19T15:18:15.515Z,3.15
2022-11-19T15:20:57.981Z,6.28
2022-11-19T15:25:40.753Z,5.15
2022-11-19T15:28:21.294Z,6.05
2022-11-19T15:31:14.285Z,4.65
2022-11-19T15:33:55.525Z,6.32
2022-11-19T15:36:30.907Z,4.80
2022-11-19T15:39:02.568Z,4.57
2022-11-19T15:41:34.114Z,7.15
2022-11-19T15:44:05.374Z,6.88
2022-11-19T15:46:39.576Z,6.78
2022-11-19T15:49:12.828Z,5.40
2022-11-19T15:51:55.483Z,5.05
2022-11-19T15:54:27.759Z,7.05
2022-11-19T15:56:59.939Z,6.47
2022-11-19T15:59:28.524Z,6.45
2022-11-19T16:04:36.976Z,5.65
2022-11-19T16:07:05.900Z,5.70
2022-11-19T16:09:33.956Z,6.10
2022-11-19T16:15:11.280Z,8.07
2022-11-19T16:17:48.646Z,7.57
2022-11-19T16:20:23.051Z,7.18
2022-11-19T16:22:57.606Z,7.55
2022-11-19T16:25:30.967Z,6.10
2022-11-19T16:28:00.483Z,6.97
2022-11-19T16:30:31.274Z,5.75
2022-11-19T16:33:00.052Z,6.25
2022-11-19T16:35:31.392Z,8.75
2022-11-19T16:38:00.726Z,7.30
2022-11-19T16:40:50.061Z,6.28
2022-11-19T16:43:16.973Z,7.60
2022-11-19T16:45:47.151Z,7.85
2022-11-19T16:48:57.874Z,6.28
2022-11-19T16:51:40.173Z,7.45
2022-11-19T16:54:09.812Z,7.90
2022-11-19T16:56:41.342Z,5.63
2022-11-19T16:59:17.603Z,6.40
2022-11-19T17:01:52.363Z,5.18
2022-11-19T17:04:20.592Z,8.25
2022-11-19T17:06:48.661Z,7.75
2022-11-19T17:09:31.071Z,9.02
2022-11-19T17:12:16.193Z,8.65
2022-11-19T17:14:58.621Z,11.15
2022-11-19T17:17:43.200Z,10.30
2022-11-19T17:21:01.451Z,10.48
2022-11-19T17:23:30.862Z,8.32
2022-11-19T17:26:00.111Z,8.45
2022-11-19T17:28:35.068Z,8.32
2022-11-19T17:31:04.480Z,7.65
2022-11-19T17:33:36.582Z,7.90
2022-11-19T17:36:05.003Z,6.35
2022-11-19T17:38:33.613Z,6.97
2022-11-19T17:41:02.644Z,7.82
2022-11-19T17:43:49.585Z,6.35
2022-11-19T17:46:17.561Z,7.10
2022-11-19T17:48:47.777Z,7.20
2022-11-19T17:51:16.994Z,6.22
2022-11-19T17:53:44.806Z,8.35
2022-11-19T17:56:17.981Z,7.05
2022-11-19T17:58:45.633Z,7.63
2022-11-19T18:01:13.422Z,7.47
2022-11-19T18:03:41.163Z,6.28
2022-11-19T18:06:12.621Z,8.52
2022-11-19T18:08:41.973Z,8.07
2022-11-19T18:11:11.444Z,10.27
2022-11-19T18:13:39.351Z,11.70
2022-11-19T18:16:13.346Z,8.70
2022-11-19T18:18:40.956Z,8.57
2022-11-19T18:21:12.346Z,9.95
2022-11-19T18:23:40.818Z,8.20
2022-11-19T18:26:10.434Z,8.70
2022-11-19T18:28:38.161Z,15.65
2022-11-19T18:31:06.032Z,15.60
2022-11-19T18:33:34.572Z,13.40
2022-11-19T18:36:02.208Z,14.07
2022-11-19T18:38:31.343Z,13.35
2022-11-19T18:40:59.001Z,12.18
2022-11-19T18:43:44.040Z,11.38
2022-11-19T18:46:11.797Z,11.02
2022-11-19T18:48:39.531Z,6.13
2022-11-19T18:51:47.591Z,10.00
2022-11-19T18:54:15.353Z,11.15
2022-11-19T18:56:43.009Z,11.18
2022-11-19T18:59:12.454Z,14.93
2022-11-19T19:01:40.625Z,12.68
2022-11-19T19:04:09.937Z,11.27
2022-11-19T19:06:37.645Z,12.45
2022-11-19T19:09:06.779Z,12.38
2022-11-19T19:11:51.700Z,14.82
2022-11-19T19:14:19.579Z,14.10
2022-11-19T19:16:47.190Z,13.57
2022-11-19T19:19:16.080Z,17.85
2022-11-19T19:21:43.946Z,11.55
2022-11-19T19:24:13.213Z,11.80
2022-11-19T19:26:40.916Z,12.27
2022-11-19T19:29:08.696Z,13.13
2022-11-19T19:31:36.827Z,18.58
2022-11-19T19:34:04.803Z,19.63
2022-11-19T19:36:32.628Z,18.42
2022-11-19T19:39:00.278Z,20.02
2022-11-19T19:41:29.573Z,21.48
2022-11-19T19:43:58.319Z,20.05
2022-11-19T19:46:26.064Z,20.38
2022-11-19T19:48:55.538Z,19.27
2022-11-19T19:51:24.736Z,14.68
2022-11-19T19:53:53.980Z,18.15
2022-11-19T19:56:23.204Z,14.65
2022-11-19T19:58:52.519Z,13.80
2022-11-19T20:01:22.415Z,15.68
2022-11-19T20:03:54.257Z,16.02
2022-11-19T20:06:24.027Z,18.45
2022-11-19T20:08:51.919Z,19.83
2022-11-19T20:11:20.926Z,20.48
2022-11-19T20:13:48.864Z,17.88
2022-11-19T20:16:18.983Z,17.50
2022-11-19T20:18:47.501Z,19.77
2022-11-19T20:21:16.807Z,17.95
2022-11-19T20:23:44.881Z,19.25
2022-11-19T20:26:14.028Z,14.13
2022-11-19T20:28:42.053Z,15.68
2022-11-19T20:31:12.294Z,16.92
2022-11-19T20:33:42.646Z,15.93
2022-11-19T20:36:11.696Z,13.57
2022-11-19T20:38:40.910Z,13.60
2022-11-19T20:41:31.665Z,15.60
2022-11-19T20:44:17.754Z,16.45
2022-11-19T20:46:46.025Z,15.32
2022-11-19T20:49:17.200Z,16.33
2022-11-19T20:51:45.728Z,19.58
2022-11-19T20:54:13.742Z,17.55
2022-11-19T20:56:41.858Z,17.98
2022-11-19T20:59:09.808Z,21.23
2022-11-19T21:01:38.382Z,24.55
2022-11-19T21:04:06.661Z,27.65
2022-11-19T21:06:35.880Z,25.75
2022-11-19T21:09:04.292Z,23.63
2022-11-19T21:11:33.119Z,26.75
2022-11-19T21:14:00.931Z,26.20
2022-11-19T21:16:29.860Z,24.88
2022-11-19T21:18:57.947Z,27.00
2022-11-19T21:21:26.527Z,29.70
2022-11-19T21:23:56.011Z,28.40
2022-11-19T21:26:25.210Z,29.95
2022-11-19T21:28:54.353Z,31.17
2022-11-19T21:31:37.720Z,42.60
2022-11-19T21:34:06.113Z,49.88
2022-11-19T21:36:34.028Z,55.25
2022-11-19T21:39:03.671Z,54.50
2022-11-19T21:41:31.461Z,47.42
2022-11-19T21:43:59.218Z,35.15
2022-11-19T21:46:27.003Z,38.20
2022-11-19T21:48:54.931Z,26.25
2022-11-19T21:51:24.844Z,18.85
2022-11-19T21:53:54.656Z,24.85
2022-11-19T21:56:24.127Z,28.75
2022-11-19T21:58:51.936Z,25.13
2022-11-19T22:01:19.740Z,23.25
2022-11-19T22:03:47.490Z,24.30
2022-11-19T22:06:15.241Z,26.98
2022-11-19T22:08:43.244Z,27.00
2022-11-19T22:11:29.741Z,27.52
2022-11-19T22:14:00.408Z,30.77
2022-11-19T22:16:28.768Z,37.80
2022-11-19T22:18:56.516Z,33.78
2022-11-19T22:21:24.343Z,36.20
2022-11-19T22:23:52.804Z,69.55
2022-11-19T22:26:20.721Z,71.18
2022-11-19T22:28:48.560Z,79.45
2022-11-19T22:31:17.794Z,77.63
2022-11-19T22:33:47.762Z,72.80
2022-11-19T22:36:15.504Z,67.60
2022-11-19T22:38:43.360Z,65.28
2022-11-19T22:41:12.500Z,59.03
2022-11-19T22:43:41.079Z,57.60
2022-11-19T22:46:09.741Z,51.80
2022-11-19T22:48:39.289Z,51.63
2022-11-19T22:51:08.330Z,53.17
2022-11-19T22:53:36.538Z,53.88
2022-11-19T22:56:04.984Z,70.82
2022-11-19T22:58:33.958Z,74.93
2022-11-19T23:02:48.917Z,94.35
2022-11-19T23:05:16.685Z,97.38
2022-11-19T23:07:44.441Z,90.10
2022-11-19T23:10:12.124Z,85.30
2022-11-19T23:12:57.112Z,95.25
2022-11-19T23:15:24.745Z,96.65
2022-11-19T23:17:53.827Z,83.10
2022-11-19T23:20:21.528Z,81.43
2022-11-19T23:22:49.164Z,60.30
2022-11-19T23:25:17.026Z,48.78
2022-11-19T23:27:44.720Z,48.88
2022-11-19T23:30:12.660Z,49.75
2022-11-19T23:32:40.863Z,45.40
2022-11-19T23:35:10.236Z,44.10
2022-11-19T23:37:37.898Z,40.33
2022-11-19T23:40:06.454Z,39.30
2022-11-19T23:42:34.102Z,37.80
2022-11-19T23:45:01.720Z,40.03
2022-11-19T23:47:29.339Z,38.20
2022-11-19T23:49:57.001Z,38.92
2022-11-19T23:52:26.051Z,36.08
2022-11-19T23:54:53.835Z,36.92
2022-11-19T23:57:21.618Z,32.60
2022-11-19T23:59:49.272Z,33.35
